createdAt,value
2018-11-27T00:00:58.136Z,25.37
2018-11-27T00:03:46.305Z,26.53
2018-11-27T00:06:15.295Z,34.73
2018-11-27T00:08:44.288Z,28.83
2018-11-27T00:11:13.312Z,34.87
2018-11-27T00:13:42.283Z,34.77
2018-11-27T00:16:11.263Z,28.77
2018-11-27T00:18:40.687Z,27.47
2018-11-27T00:21:09.713Z,28.83
2018-11-27T00:23:38.738Z,27.33
2018-11-27T00:26:08.627Z,26.77
2018-11-27T00:28:36.842Z,34.10
2018-11-27T00:31:06.522Z,37.53
2018-11-27T00:33:35.566Z,38.27
2018-11-27T00:36:04.681Z,43.17
2018-11-27T00:38:33.710Z,30.97
2018-11-27T00:41:02.692Z,26.23
2018-11-27T00:43:31.743Z,24.47
2018-11-27T00:46:00.726Z,26.07
2018-11-27T00:48:29.727Z,25.93
2018-11-27T00:50:58.737Z,26.47
2018-11-27T00:53:27.693Z,33.73
2018-11-27T00:55:56.750Z,24.80
2018-11-27T00:58:25.753Z,30.40
2018-11-27T01:00:54.790Z,24.87
2018-11-27T01:03:23.846Z,23.53
2018-11-27T01:05:52.807Z,22.27
2018-11-27T01:08:21.858Z,25.27
2018-11-27T01:10:50.869Z,23.30
2018-11-27T01:13:19.859Z,29.27
2018-11-27T01:15:48.877Z,25.23
2018-11-27T01:18:17.870Z,23.53
2018-11-27T01:20:46.848Z,24.57
2018-11-27T01:23:15.836Z,23.73
2018-11-27T01:25:44.917Z,22.87
2018-11-27T01:28:13.848Z,23.47
2018-11-27T01:30:42.828Z,22.87
2018-11-27T01:33:11.807Z,23.13
2018-11-27T01:35:40.811Z,23.10
2018-11-27T01:38:09.815Z,23.07
2018-11-27T01:40:38.829Z,24.43
2018-11-27T01:43:07.956Z,23.70
2018-11-27T01:45:36.957Z,22.57
2018-11-27T01:48:06.271Z,28.33
2018-11-27T01:50:35.334Z,29.45
2018-11-27T01:53:04.758Z,24.73
2018-11-27T01:55:33.753Z,22.93
2018-11-27T01:58:02.767Z,28.83
2018-11-27T02:00:31.749Z,23.03
2018-11-27T02:03:01.484Z,23.57
2018-11-27T02:05:30.794Z,22.20
2018-11-27T02:07:59.760Z,23.67
2018-11-27T02:10:28.798Z,23.00
2018-11-27T02:13:01.176Z,22.70
2018-11-27T02:15:30.211Z,23.67
2018-11-27T02:17:59.284Z,22.40
2018-11-27T02:20:28.300Z,21.80
2018-11-27T02:22:59.060Z,27.80
2018-11-27T02:25:29.132Z,22.40
2018-11-27T02:27:58.166Z,27.70
2018-11-27T02:30:27.955Z,24.67
2018-11-27T02:32:56.944Z,23.90
2018-11-27T02:35:26.694Z,21.70
2018-11-27T02:37:59.241Z,27.90
2018-11-27T02:40:28.225Z,23.10
2018-11-27T02:42:57.231Z,22.63
2018-11-27T02:45:26.614Z,20.47
2018-11-27T02:47:55.733Z,22.23
2018-11-27T02:50:25.740Z,22.13
2018-11-27T02:52:54.734Z,21.93
2018-11-27T02:55:24.956Z,21.50
2018-11-27T02:57:54.049Z,21.97
2018-11-27T03:00:27.378Z,21.83
2018-11-27T03:02:56.460Z,22.07
2018-11-27T03:05:35.688Z,21.63
2018-11-27T03:08:04.668Z,21.53
2018-11-27T03:10:33.773Z,21.20
2018-11-27T03:13:02.784Z,21.03
2018-11-27T03:15:31.784Z,22.00
2018-11-27T03:18:00.761Z,23.20
2018-11-27T03:20:29.800Z,21.90
2018-11-27T03:22:58.763Z,21.90
2018-11-27T03:25:27.753Z,22.07
2018-11-27T03:27:56.800Z,22.23
2018-11-27T03:30:26.628Z,22.07
2018-11-27T03:32:55.754Z,22.97
2018-11-27T03:35:25.431Z,21.10
2018-11-27T03:38:00.339Z,20.87
2018-11-27T03:40:29.562Z,22.43
2018-11-27T03:42:58.517Z,22.33
2018-11-27T03:45:27.464Z,22.70
2018-11-27T03:47:56.397Z,23.20
2018-11-27T03:50:29.629Z,22.67
2018-11-27T03:52:58.543Z,22.90
2018-11-27T03:55:27.479Z,22.57
2018-11-27T03:57:56.353Z,22.13
2018-11-27T04:00:28.953Z,22.63
2018-11-27T04:03:15.859Z,22.73
2018-11-27T04:05:44.761Z,21.73
2018-11-27T04:08:13.739Z,22.23
2018-11-27T04:10:42.769Z,22.67
2018-11-27T04:13:11.852Z,22.20
2018-11-27T04:15:40.707Z,23.03
2018-11-27T04:18:09.674Z,20.60
2018-11-27T04:20:38.657Z,22.53
2018-11-27T04:23:07.621Z,21.70
2018-11-27T04:25:36.505Z,21.37
2018-11-27T04:28:06.215Z,23.40
2018-11-27T04:30:35.142Z,22.20
2018-11-27T04:33:04.200Z,22.20
2018-11-27T04:35:33.136Z,22.70
2018-11-27T04:38:02.096Z,21.67
2018-11-27T04:40:31.003Z,21.93
2018-11-27T04:42:59.955Z,22.80
2018-11-27T04:45:28.927Z,27.90
2018-11-27T04:47:57.916Z,23.67
2018-11-27T04:50:26.868Z,22.07
2018-11-27T04:52:55.887Z,23.03
2018-11-27T04:55:24.819Z,22.67
2018-11-27T04:57:53.757Z,22.77
2018-11-27T05:00:23.814Z,22.07
2018-11-27T05:02:52.796Z,22.67
2018-11-27T05:05:21.780Z,22.90
2018-11-27T05:07:50.724Z,22.47
2018-11-27T05:10:20.971Z,22.37
2018-11-27T05:12:49.901Z,22.70
2018-11-27T05:15:23.445Z,22.77
2018-11-27T05:18:02.019Z,22.90
2018-11-27T05:20:30.955Z,21.67
2018-11-27T05:22:59.909Z,23.03
2018-11-27T05:25:28.986Z,21.93
2018-11-27T05:27:58.264Z,22.77
2018-11-27T05:30:28.574Z,22.90
2018-11-27T05:32:57.456Z,21.63
2018-11-27T05:35:27.628Z,22.53
2018-11-27T05:37:56.668Z,28.40
2018-11-27T05:40:26.173Z,24.50
2018-11-27T05:42:59.660Z,21.60
2018-11-27T05:45:28.667Z,27.95
2018-11-27T05:47:57.618Z,24.00
2018-11-27T05:50:26.549Z,23.47
2018-11-27T05:52:55.518Z,21.80
2018-11-27T05:55:24.483Z,22.17
2018-11-27T05:57:55.058Z,22.30
2018-11-27T06:00:28.324Z,21.33
2018-11-27T06:03:01.412Z,21.60
2018-11-27T06:05:30.380Z,22.00
2018-11-27T06:07:59.308Z,22.23
2018-11-27T06:10:28.354Z,22.60
2018-11-27T06:12:57.281Z,22.13
2018-11-27T06:15:26.223Z,22.97
2018-11-27T06:17:59.349Z,22.10
2018-11-27T06:20:28.306Z,22.23
2018-11-27T06:22:57.324Z,23.93
2018-11-27T06:25:27.446Z,21.60
2018-11-27T06:28:03.826Z,21.37
2018-11-27T06:30:34.058Z,21.93
2018-11-27T06:33:02.974Z,20.83
2018-11-27T06:35:42.383Z,21.17
2018-11-27T06:38:11.762Z,21.73
2018-11-27T06:40:41.830Z,22.53
2018-11-27T06:43:11.887Z,22.13
2018-11-27T06:45:41.932Z,21.57
2018-11-27T06:48:10.926Z,21.90
2018-11-27T06:50:39.929Z,22.30
2018-11-27T06:53:08.971Z,22.83
2018-11-27T06:55:37.978Z,21.70
2018-11-27T06:58:07.716Z,22.03
2018-11-27T07:00:36.683Z,22.00
2018-11-27T07:03:08.926Z,22.87
2018-11-27T07:05:38.113Z,23.23
2018-11-27T07:08:08.374Z,23.70
2018-11-27T07:10:38.317Z,21.27
2018-11-27T07:13:11.400Z,22.53
2018-11-27T07:15:40.461Z,22.63
2018-11-27T07:18:09.687Z,22.63
2018-11-27T07:20:38.642Z,21.37
2018-11-27T07:23:08.024Z,22.60
2018-11-27T07:25:37.435Z,27.60
2018-11-27T07:28:06.683Z,22.90
2018-11-27T07:30:36.177Z,23.57
2018-11-27T07:33:05.893Z,22.30
2018-11-27T07:35:35.501Z,22.93
2018-11-27T07:38:04.419Z,23.13
2018-11-27T07:40:33.343Z,23.07
2018-11-27T07:43:09.725Z,21.80
2018-11-27T07:45:38.956Z,22.93
2018-11-27T07:48:08.838Z,23.20
2018-11-27T07:50:37.757Z,22.93
2018-11-27T07:53:07.444Z,22.83
2018-11-27T07:55:36.307Z,22.17
2018-11-27T07:58:06.427Z,23.17
2018-11-27T08:00:35.874Z,22.67
2018-11-27T08:03:05.753Z,23.20
2018-11-27T08:05:39.167Z,23.93
2018-11-27T08:08:12.839Z,23.10
2018-11-27T08:10:42.307Z,21.53
2018-11-27T08:13:11.368Z,22.93
2018-11-27T08:15:40.281Z,21.67
2018-11-27T08:18:10.042Z,23.57
2018-11-27T08:20:38.966Z,23.17
2018-11-27T08:23:09.326Z,23.23
2018-11-27T08:25:38.279Z,23.17
2018-11-27T08:28:07.728Z,23.53
2018-11-27T08:30:36.664Z,30.30
2018-11-27T08:33:06.315Z,25.60
2018-11-27T08:35:35.147Z,30.90
2018-11-27T08:38:04.191Z,25.90
2018-11-27T08:40:33.766Z,30.37
2018-11-27T08:43:02.721Z,25.00
2018-11-27T08:45:31.724Z,25.03
2018-11-27T08:48:00.715Z,25.40
2018-11-27T08:50:29.592Z,23.77
2018-11-27T08:53:05.739Z,24.57
2018-11-27T08:55:38.904Z,23.80
2018-11-27T08:58:18.465Z,23.77
2018-11-27T09:00:47.405Z,23.73
2018-11-27T09:03:16.371Z,22.87
2018-11-27T09:05:45.391Z,23.23
2018-11-27T09:08:14.410Z,24.83
2018-11-27T09:10:43.378Z,24.20
2018-11-27T09:13:12.636Z,24.73
2018-11-27T09:15:41.247Z,24.67
2018-11-27T09:18:23.745Z,23.50
2018-11-27T09:20:52.646Z,25.23
2018-11-27T09:23:21.621Z,25.10
2018-11-27T09:25:50.510Z,24.60
2018-11-27T09:28:19.412Z,25.33
2018-11-27T09:30:48.445Z,23.63
2018-11-27T09:33:17.375Z,24.47
2018-11-27T09:35:46.280Z,29.85
2018-11-27T09:38:15.203Z,25.90
2018-11-27T09:40:44.248Z,24.37
2018-11-27T09:43:13.211Z,23.80
2018-11-27T09:45:43.533Z,24.97
2018-11-27T09:48:12.375Z,24.03
2018-11-27T09:50:41.295Z,23.97
2018-11-27T09:53:12.142Z,24.47
2018-11-27T09:55:40.991Z,24.23
2018-11-27T09:58:09.861Z,24.83
2018-11-27T10:00:38.760Z,23.77
2018-11-27T10:03:09.248Z,24.30
2018-11-27T10:05:38.243Z,24.37
2018-11-27T10:08:08.091Z,24.07
2018-11-27T10:10:36.983Z,29.75
2018-11-27T10:13:07.111Z,24.33
2018-11-27T10:15:36.017Z,25.33
2018-11-27T10:18:04.980Z,25.80
2018-11-27T10:20:38.371Z,25.00
2018-11-27T10:23:14.559Z,25.23
2018-11-27T10:25:43.454Z,23.60
2018-11-27T10:28:12.394Z,23.77
2018-11-27T10:30:41.303Z,23.43
2018-11-27T10:33:11.236Z,31.33
2018-11-27T10:35:59.677Z,24.17
2018-11-27T10:38:28.621Z,23.97
2018-11-27T10:40:57.554Z,24.23
2018-11-27T10:43:26.471Z,24.87
2018-11-27T10:45:55.351Z,30.37
2018-11-27T10:48:24.238Z,25.10
2018-11-27T10:50:53.205Z,25.37
2018-11-27T10:53:22.120Z,23.80
2018-11-27T10:55:51.083Z,24.40
2018-11-27T10:58:19.997Z,25.67
2018-11-27T11:01:06.423Z,25.30
2018-11-27T11:03:35.445Z,25.33
2018-11-27T11:06:06.024Z,24.77
2018-11-27T11:08:34.946Z,25.30
2018-11-27T11:11:03.818Z,24.07
2018-11-27T11:13:32.734Z,24.20
2018-11-27T11:16:01.631Z,25.23
2018-11-27T11:18:30.591Z,22.90
2018-11-27T11:20:59.523Z,24.73
2018-11-27T11:23:28.448Z,23.57
2018-11-27T11:25:57.335Z,23.53
2018-11-27T11:28:28.130Z,24.23
2018-11-27T11:30:57.078Z,24.40
2018-11-27T11:33:26.026Z,24.67
2018-11-27T11:35:54.918Z,23.97
2018-11-27T11:38:23.863Z,24.27
2018-11-27T11:40:52.782Z,23.90
2018-11-27T11:43:21.718Z,31.55
2018-11-27T11:45:50.641Z,24.87
2018-11-27T11:48:19.583Z,24.30
2018-11-27T11:50:48.497Z,26.23
2018-11-27T11:53:18.541Z,23.83
2018-11-27T11:55:48.143Z,23.90
2018-11-27T11:58:17.447Z,24.40
2018-11-27T12:00:51.342Z,30.45
2018-11-27T12:03:20.244Z,24.87
2018-11-27T12:05:49.164Z,25.20
2018-11-27T12:08:18.057Z,23.70
2018-11-27T12:10:47.029Z,24.67
2018-11-27T12:13:15.999Z,24.50
2018-11-27T12:15:44.912Z,23.90
2018-11-27T12:18:13.799Z,24.90
2018-11-27T12:20:42.701Z,25.70
2018-11-27T12:23:12.279Z,24.23
2018-11-27T12:25:41.381Z,23.53
2018-11-27T12:28:14.715Z,23.97
2018-11-27T12:30:39.759Z,25.00
2018-11-27T12:33:08.685Z,25.03
2018-11-27T12:35:37.614Z,24.27
2018-11-27T12:38:06.512Z,24.40
2018-11-27T12:40:35.482Z,25.50
2018-11-27T12:43:04.409Z,24.67
2018-11-27T12:45:33.796Z,24.53
2018-11-27T12:48:03.463Z,23.90
2018-11-27T12:50:51.807Z,24.07
2018-11-27T12:53:20.763Z,25.47
2018-11-27T12:55:50.487Z,24.63
2018-11-27T12:58:19.441Z,24.57
2018-11-27T13:00:48.377Z,24.13
2018-11-27T13:03:17.292Z,25.13
2018-11-27T13:05:46.803Z,24.63
2018-11-27T13:08:22.633Z,25.20
2018-11-27T13:10:51.657Z,23.60
2018-11-27T13:13:20.567Z,24.03
2018-11-27T13:15:49.444Z,23.97
2018-11-27T13:18:18.584Z,23.70
2018-11-27T13:20:47.436Z,23.13
2018-11-27T13:23:16.343Z,23.60
2018-11-27T13:25:45.223Z,24.37
2018-11-27T13:28:14.675Z,24.43
2018-11-27T13:31:03.485Z,25.07
2018-11-27T13:34:06.120Z,29.70
2018-11-27T13:36:35.114Z,24.73
2018-11-27T13:39:31.184Z,24.60
2018-11-27T13:42:00.143Z,25.20
2018-11-27T13:44:29.105Z,25.27
2018-11-27T13:46:58.041Z,25.33
2018-11-27T13:49:27.818Z,31.52
2018-11-27T13:51:55.893Z,26.33
2018-11-27T13:54:24.817Z,24.90
2018-11-27T13:56:53.769Z,24.83
2018-11-27T13:59:22.706Z,24.73
2018-11-27T14:01:51.654Z,30.60
2018-11-27T14:04:20.596Z,26.40
2018-11-27T14:06:49.523Z,23.93
2018-11-27T14:09:18.512Z,25.37
2018-11-27T14:11:47.389Z,25.73
2018-11-27T14:14:16.333Z,25.90
2018-11-27T14:16:45.234Z,25.37
2018-11-27T14:19:14.141Z,24.10
2018-11-27T14:21:43.063Z,25.47
2018-11-27T14:24:12.006Z,24.87
2018-11-27T14:26:40.911Z,25.13
2018-11-27T14:29:09.823Z,25.83
2018-11-27T14:31:38.717Z,24.10
2018-11-27T14:34:07.641Z,25.40
2018-11-27T14:36:36.524Z,23.53
2018-11-27T14:39:09.244Z,25.00
2018-11-27T14:41:38.159Z,24.60
2018-11-27T14:44:07.115Z,24.50
2018-11-27T14:46:36.031Z,24.63
2018-11-27T14:49:05.087Z,24.97
2018-11-27T14:51:34.046Z,24.17
2018-11-27T14:54:03.013Z,31.50
2018-11-27T14:56:31.895Z,25.97
2018-11-27T14:59:00.872Z,24.50
2018-11-27T15:01:29.816Z,24.87
2018-11-27T15:03:58.708Z,25.87
2018-11-27T15:06:27.684Z,24.40
2018-11-27T15:08:56.573Z,24.67
2018-11-27T15:11:25.503Z,24.37
2018-11-27T15:13:54.432Z,24.93
2018-11-27T15:16:23.334Z,24.63
2018-11-27T15:18:52.240Z,24.17
2018-11-27T15:21:21.172Z,24.60
2018-11-27T15:23:50.088Z,23.07
2018-11-27T15:26:19.033Z,23.67
2018-11-27T15:28:48.022Z,23.60
2018-11-27T15:31:17.005Z,23.57
2018-11-27T15:33:45.912Z,24.47
2018-11-27T15:36:14.787Z,24.77
2018-11-27T15:38:43.795Z,22.93
2018-11-27T15:41:12.675Z,23.47
2018-11-27T15:43:41.619Z,23.80
2018-11-27T15:46:10.575Z,24.10
2018-11-27T15:48:39.450Z,29.07
2018-11-27T15:51:08.373Z,24.97
2018-11-27T15:53:37.309Z,23.37
2018-11-27T15:56:06.235Z,22.57
2018-11-27T15:58:35.200Z,23.57
2018-11-27T16:01:04.118Z,24.33
2018-11-27T16:03:33.139Z,23.93
2018-11-27T16:06:02.075Z,23.77
2018-11-27T16:08:30.969Z,23.10
2018-11-27T16:10:59.897Z,23.60
2018-11-27T16:13:28.853Z,23.43
2018-11-27T16:15:57.786Z,22.63
2018-11-27T16:18:26.730Z,23.30
2018-11-27T16:20:57.563Z,23.20
2018-11-27T16:23:26.481Z,22.87
2018-11-27T16:25:55.443Z,22.83
2018-11-27T16:28:24.363Z,23.83
2018-11-27T16:30:53.300Z,22.93
2018-11-27T16:33:22.233Z,23.30
2018-11-27T16:35:51.116Z,29.67
2018-11-27T16:38:20.079Z,24.90
2018-11-27T16:40:49.103Z,23.77
2018-11-27T16:43:18.028Z,22.80
2018-11-27T16:45:46.920Z,23.13
2018-11-27T16:48:15.876Z,22.67
2018-11-27T16:50:44.779Z,23.27
2018-11-27T16:53:13.692Z,23.00
2018-11-27T16:55:42.581Z,23.60
2018-11-27T16:58:11.525Z,22.67
2018-11-27T17:00:40.481Z,22.63
2018-11-27T17:03:09.629Z,24.13
2018-11-27T17:05:45.395Z,22.33
2018-11-27T17:08:14.551Z,22.50
2018-11-27T17:10:44.596Z,22.87
2018-11-27T17:13:14.711Z,23.23
2018-11-27T17:15:43.625Z,23.53
2018-11-27T17:18:13.034Z,28.55
2018-11-27T17:20:43.437Z,24.57
2018-11-27T17:23:16.655Z,22.93
2018-11-27T17:25:45.559Z,29.18
2018-11-27T17:28:18.854Z,23.60
2018-11-27T17:31:11.116Z,28.67
2018-11-27T17:34:00.825Z,24.07
2018-11-27T17:36:29.709Z,23.83
2018-11-27T17:38:58.950Z,22.63
2018-11-27T17:41:28.108Z,23.63
2018-11-27T17:43:57.241Z,24.03
2018-11-27T17:46:26.158Z,23.87
2018-11-27T17:48:55.112Z,24.20
2018-11-27T17:51:24.032Z,22.47
2018-11-27T17:53:52.946Z,22.90
2018-11-27T17:56:21.881Z,23.37
2018-11-27T17:58:50.782Z,23.10
2018-11-27T18:01:19.673Z,25.47
2018-11-27T18:03:48.598Z,23.40
2018-11-27T18:06:17.477Z,23.73
2018-11-27T18:08:46.367Z,24.00
2018-11-27T18:11:15.264Z,23.33
2018-11-27T18:13:44.146Z,25.03
2018-11-27T18:16:13.071Z,28.93
2018-11-27T18:18:42.002Z,24.93
2018-11-27T18:21:10.889Z,24.23
2018-11-27T18:23:39.805Z,22.90
2018-11-27T18:26:08.832Z,23.40
2018-11-27T18:28:37.660Z,24.93
2018-11-27T18:31:07.225Z,25.30
2018-11-27T18:33:36.128Z,23.30
2018-11-27T18:36:05.093Z,24.57
2018-11-27T18:38:33.991Z,24.03
2018-11-27T18:41:02.940Z,24.57
2018-11-27T18:43:31.872Z,24.80
2018-11-27T18:46:00.792Z,25.93
2018-11-27T18:48:29.676Z,26.00
2018-11-27T18:50:58.583Z,24.43
2018-11-27T18:53:27.498Z,26.13
2018-11-27T18:55:56.410Z,25.93
2018-11-27T18:58:25.347Z,26.00
2018-11-27T19:00:54.259Z,26.87
2018-11-27T19:03:23.199Z,42.43
2018-11-27T19:05:52.092Z,52.93
2018-11-27T19:08:21.007Z,26.93
2018-11-27T19:10:49.899Z,26.40
2018-11-27T19:13:18.803Z,25.47
2018-11-27T19:15:49.516Z,26.73
2018-11-27T19:18:21.739Z,33.65
2018-11-27T19:20:54.702Z,27.70
2018-11-27T19:23:25.828Z,25.87
2018-11-27T19:25:55.608Z,27.20
2018-11-27T19:28:24.465Z,27.23
2018-11-27T19:30:53.380Z,25.77
2018-11-27T19:33:22.272Z,26.17
2018-11-27T19:35:51.178Z,27.03
2018-11-27T19:38:20.556Z,26.33
2018-11-27T19:40:49.481Z,26.23
2018-11-27T19:43:18.361Z,25.60
2018-11-27T19:45:47.297Z,25.57
2018-11-27T19:48:16.722Z,25.13
2018-11-27T19:50:45.634Z,32.67
2018-11-27T19:53:15.441Z,27.43
2018-11-27T19:55:44.362Z,25.60
2018-11-27T19:58:13.271Z,25.30
2018-11-27T20:00:42.177Z,25.00
2018-11-27T20:03:12.114Z,25.73
2018-11-27T20:05:41.128Z,32.58
2018-11-27T20:08:15.288Z,26.47
2018-11-27T20:10:44.207Z,26.20
2018-11-27T20:13:13.222Z,25.87
2018-11-27T20:15:42.223Z,25.57
2018-11-27T20:18:11.150Z,26.37
2018-11-27T20:20:40.053Z,25.00
2018-11-27T20:23:08.941Z,26.23
2018-11-27T20:25:37.843Z,25.00
2018-11-27T20:28:08.162Z,25.40
2018-11-27T20:30:38.435Z,25.70
2018-11-27T20:33:07.403Z,32.28
2018-11-27T20:35:36.360Z,25.70
2018-11-27T20:38:09.920Z,27.27
2018-11-27T20:40:39.513Z,24.90
2018-11-27T20:43:08.450Z,25.97
2018-11-27T20:45:37.613Z,23.73
2018-11-27T20:48:14.210Z,23.63
2018-11-27T20:50:43.187Z,23.57
2018-11-27T20:53:12.081Z,22.90
2018-11-27T20:55:41.031Z,29.93
2018-11-27T20:58:10.096Z,24.17
2018-11-27T21:00:40.305Z,23.03
2018-11-27T21:03:09.920Z,35.50
2018-11-27T21:05:38.912Z,26.90
2018-11-27T21:08:08.159Z,23.93
2018-11-27T21:10:37.586Z,23.40
2018-11-27T21:13:07.667Z,22.93
2018-11-27T21:15:37.353Z,24.83
2018-11-27T21:18:07.104Z,23.47
2018-11-27T21:20:36.016Z,21.43
2018-11-27T21:23:04.938Z,22.47
2018-11-27T21:25:33.843Z,22.23
2018-11-27T21:28:20.435Z,20.70
2018-11-27T21:30:52.339Z,20.63
2018-11-27T21:33:21.279Z,21.13
2018-11-27T21:35:50.157Z,21.90
2018-11-27T21:38:19.103Z,20.60
2018-11-27T21:40:47.989Z,19.67
2018-11-27T21:43:18.832Z,20.17
2018-11-27T21:45:49.365Z,20.47
2018-11-27T21:48:19.565Z,19.90
2018-11-27T21:50:48.395Z,19.70
2018-11-27T21:53:17.310Z,19.47
2018-11-27T21:55:46.207Z,19.43
2018-11-27T21:58:15.140Z,20.50
2018-11-27T22:00:44.034Z,19.60
2018-11-27T22:03:13.023Z,20.13
2018-11-27T22:05:41.941Z,19.77
2018-11-27T22:08:10.863Z,18.17
2018-11-27T22:10:39.760Z,20.53
2018-11-27T22:13:13.330Z,18.80
2018-11-27T22:15:43.556Z,18.27
2018-11-27T22:18:13.439Z,18.20
2018-11-27T22:20:42.347Z,18.37
2018-11-27T22:23:11.246Z,17.33
2018-11-27T22:25:40.168Z,18.00
2018-11-27T22:28:09.395Z,17.67
2018-11-27T22:30:38.303Z,18.37
2018-11-27T22:33:08.233Z,17.80
2018-11-27T22:35:37.464Z,17.47
2018-11-27T22:38:07.286Z,18.83
2018-11-27T22:40:36.202Z,18.53
2018-11-27T22:43:06.394Z,17.80
2018-11-27T22:45:44.624Z,19.27
2018-11-27T22:48:13.541Z,18.17
2018-11-27T22:50:42.446Z,18.30
2018-11-27T22:53:11.390Z,21.97
2018-11-27T22:55:40.277Z,23.10
2018-11-27T22:58:09.205Z,18.93
2018-11-27T23:00:50.069Z,19.37
2018-11-27T23:03:19.405Z,17.50
2018-11-27T23:05:48.296Z,17.60
2018-11-27T23:08:17.200Z,17.30
2018-11-27T23:10:47.136Z,17.87
2018-11-27T23:13:16.059Z,17.50
2018-11-27T23:15:45.144Z,16.40
2018-11-27T23:18:14.065Z,16.27
2018-11-27T23:20:42.995Z,18.30
2018-11-27T23:23:11.879Z,17.07
2018-11-27T23:25:40.783Z,16.57
2018-11-27T23:28:09.700Z,17.13
2018-11-27T23:30:38.603Z,16.93
2018-11-27T23:33:07.555Z,17.20
2018-11-27T23:35:36.482Z,16.47
2018-11-27T23:38:05.379Z,16.33
2018-11-27T23:40:34.375Z,16.93
2018-11-27T23:43:03.869Z,17.40
2018-11-27T23:45:32.113Z,16.67
2018-11-27T23:48:01.004Z,17.63
2018-11-27T23:50:29.930Z,17.17
2018-11-27T23:52:58.963Z,21.35
2018-11-27T23:55:27.884Z,18.90
2018-11-27T23:57:56.788Z,17.47
